METAR Data

Data at: 1150 UTC 21 Apr 2021

METAR for:KLEW (Auburn-Lewiston Muni, ME, US)
Text:KLEW 211056Z AUTO 35003KT 10SM SCT070 BKN080 06/06 A2985 RMK AO2 SLP115 T00610056
Temperature: 6.1°C ( 43°F)
Dewpoint: 5.6°C ( 42°F) [RH = 97%]
Pressure (altimeter):29.85 inches Hg (1010.9 mb) [Sea level pressure: 1011.5 mb]
Winds:from the N (350 degrees) at 3 MPH (3 knots; 1.5 m/s)
Visibility:10 or more sm (16+ km)
Ceiling:8000 feet AGL
Clouds: scattered clouds at 7000 feet AGL, broken clouds at 8000 feet AGL
QC Flag:automated observation with no human augmentation